createdAt,value
2018-12-16T00:01:14.156Z,81.84
2018-12-16T00:04:17.699Z,82.22
2018-12-16T00:07:21.546Z,81.77
2018-12-16T00:10:25.106Z,81.85
2018-12-16T00:13:28.690Z,81.80
2018-12-16T00:16:32.248Z,81.35
2018-12-16T00:19:36.137Z,82.09
2018-12-16T00:22:39.619Z,82.57
2018-12-16T00:25:43.183Z,82.93
2018-12-16T00:28:47.704Z,82.39
2018-12-16T00:31:51.413Z,82.35
2018-12-16T00:34:55.708Z,81.80
2018-12-16T00:37:59.248Z,81.46
2018-12-16T00:41:02.691Z,80.72
2018-12-16T00:44:06.198Z,81.74
2018-12-16T00:47:09.788Z,80.67
2018-12-16T00:50:13.548Z,81.21
2018-12-16T00:53:17.085Z,80.42
2018-12-16T00:56:20.639Z,80.38
2018-12-16T00:59:24.308Z,80.12
2018-12-16T01:02:33.120Z,79.91
2018-12-16T01:05:38.381Z,80.53
2018-12-16T01:08:48.455Z,81.60
2018-12-16T01:11:52.046Z,80.79
2018-12-16T01:14:55.694Z,80.01
2018-12-16T01:17:59.229Z,80.35
2018-12-16T01:21:03.068Z,80.89
2018-12-16T01:24:06.680Z,80.71
2018-12-16T01:27:10.471Z,80.73
2018-12-16T01:30:14.108Z,80.15
2018-12-16T01:33:17.709Z,80.07
2018-12-16T01:36:21.660Z,80.48
2018-12-16T01:39:25.379Z,80.51
2018-12-16T01:42:28.950Z,80.32
2018-12-16T01:45:32.878Z,80.99
2018-12-16T01:48:36.393Z,80.30
2018-12-16T01:51:40.082Z,80.49
2018-12-16T01:54:43.567Z,80.51
2018-12-16T01:57:47.820Z,79.81
2018-12-16T02:00:51.553Z,80.04
2018-12-16T02:03:55.188Z,79.89
2018-12-16T02:06:58.749Z,80.02
2018-12-16T02:10:02.289Z,80.32
2018-12-16T02:13:05.825Z,79.89
2018-12-16T02:16:09.413Z,79.99
2018-12-16T02:19:12.989Z,79.28
2018-12-16T02:22:16.904Z,78.90
2018-12-16T02:25:20.418Z,79.29
2018-12-16T02:28:24.111Z,78.87
2018-12-16T02:31:27.945Z,78.51
2018-12-16T02:34:31.557Z,79.20
2018-12-16T02:37:35.204Z,79.41
2018-12-16T02:40:38.775Z,79.53
2018-12-16T02:43:42.305Z,79.64
2018-12-16T02:46:47.223Z,79.51
2018-12-16T02:49:50.804Z,79.25
2018-12-16T02:53:04.560Z,79.57
2018-12-16T02:56:06.578Z,79.40
2018-12-16T02:59:10.313Z,79.71
2018-12-16T03:02:13.810Z,79.48
2018-12-16T03:05:17.450Z,79.54
2018-12-16T03:08:20.939Z,79.48
2018-12-16T03:11:25.135Z,79.33
2018-12-16T03:14:28.827Z,79.57
2018-12-16T03:17:32.479Z,79.25
2018-12-16T03:20:36.524Z,79.12
2018-12-16T03:23:40.153Z,80.14
2018-12-16T03:26:43.871Z,79.03
2018-12-16T03:29:47.919Z,79.55
2018-12-16T03:32:51.585Z,79.70
2018-12-16T03:35:55.159Z,79.15
2018-12-16T03:38:59.558Z,79.41
2018-12-16T03:42:03.147Z,79.57
2018-12-16T03:45:06.906Z,79.29
2018-12-16T03:48:10.459Z,79.45
2018-12-16T03:51:14.000Z,79.40
2018-12-16T03:54:17.622Z,78.70
2018-12-16T03:57:21.265Z,79.03
2018-12-16T04:00:24.910Z,79.83
2018-12-16T04:03:28.587Z,80.36
2018-12-16T04:06:32.121Z,79.83
2018-12-16T04:09:35.653Z,78.53
2018-12-16T04:12:39.805Z,78.77
2018-12-16T04:15:43.444Z,78.87
2018-12-16T04:18:48.050Z,78.95
2018-12-16T04:21:51.769Z,79.01
2018-12-16T04:24:55.481Z,79.49
2018-12-16T04:27:59.236Z,79.64
2018-12-16T04:31:02.754Z,78.53
2018-12-16T04:34:06.598Z,78.42
2018-12-16T04:37:10.139Z,79.08
2018-12-16T04:40:13.939Z,79.14
2018-12-16T04:43:17.499Z,78.71
2018-12-16T04:46:21.119Z,78.69
2018-12-16T04:49:24.629Z,78.30
2018-12-16T04:52:28.371Z,78.58
2018-12-16T04:55:32.022Z,78.20
2018-12-16T04:58:35.600Z,78.23
2018-12-16T05:01:39.253Z,78.16
2018-12-16T05:04:42.835Z,77.50
2018-12-16T05:12:52.942Z,77.16
2018-12-16T05:15:56.573Z,77.67
2018-12-16T05:19:00.178Z,76.94
2018-12-16T05:22:03.877Z,76.74
2018-12-16T05:25:07.526Z,76.78
2018-12-16T05:28:11.098Z,77.07
2018-12-16T05:31:14.827Z,76.89
2018-12-16T05:34:18.463Z,76.73
2018-12-16T05:37:22.054Z,77.52
2018-12-16T05:40:25.622Z,77.93
2018-12-16T05:43:29.158Z,76.71
2018-12-16T05:46:32.879Z,77.48
2018-12-16T05:49:36.503Z,76.59
2018-12-16T05:52:39.992Z,77.97
2018-12-16T05:55:43.516Z,77.23
2018-12-16T05:58:48.406Z,76.68
2018-12-16T06:01:51.876Z,76.99
2018-12-16T06:04:55.399Z,76.02
2018-12-16T06:07:58.928Z,77.81
2018-12-16T06:11:02.572Z,77.67
2018-12-16T06:14:06.299Z,77.31
2018-12-16T06:17:09.803Z,77.58
2018-12-16T06:20:13.380Z,76.68
2018-12-16T06:23:17.394Z,76.83
2018-12-16T06:26:21.006Z,77.44
2018-12-16T06:29:24.577Z,76.67
2018-12-16T06:32:28.312Z,76.45
2018-12-16T06:35:31.891Z,76.43
2018-12-16T06:38:35.497Z,77.03
2018-12-16T06:41:39.105Z,76.63
2018-12-16T06:44:42.743Z,76.97
2018-12-16T06:47:46.326Z,76.69
2018-12-16T06:50:49.857Z,76.84
2018-12-16T06:53:53.526Z,76.36
2018-12-16T06:56:57.166Z,76.59
2018-12-16T07:00:00.767Z,76.41
2018-12-16T07:03:04.347Z,76.21
2018-12-16T07:06:07.858Z,76.05
2018-12-16T07:09:11.407Z,76.13
2018-12-16T07:12:14.963Z,75.90
2018-12-16T07:15:18.511Z,75.87
2018-12-16T07:18:21.966Z,76.58
2018-12-16T07:21:25.595Z,77.13
2018-12-16T07:24:29.278Z,76.04
2018-12-16T07:27:32.716Z,75.52
2018-12-16T07:30:36.306Z,75.30
2018-12-16T07:33:39.815Z,76.69
2018-12-16T07:36:43.691Z,75.94
2018-12-16T07:45:20.136Z,75.62
2018-12-16T07:48:23.954Z,75.75
2018-12-16T07:51:27.547Z,76.13
2018-12-16T07:54:31.122Z,74.95
2018-12-16T07:57:34.796Z,76.44
2018-12-16T08:00:39.416Z,75.98
2018-12-16T08:03:43.047Z,75.60
2018-12-16T08:12:19.732Z,75.75
2018-12-16T08:15:23.265Z,76.83
2018-12-16T08:18:27.110Z,76.21
2018-12-16T08:21:30.831Z,76.08
2018-12-16T08:24:34.326Z,75.36
2018-12-16T08:27:37.906Z,75.54
2018-12-16T08:30:41.495Z,75.17
2018-12-16T08:33:45.040Z,75.73
2018-12-16T08:36:48.667Z,75.52
2018-12-16T08:39:52.211Z,74.89
2018-12-16T08:42:55.727Z,75.65
2018-12-16T08:45:59.163Z,75.49
2018-12-16T08:49:02.638Z,75.33
2018-12-16T08:52:06.152Z,75.56
2018-12-16T08:55:09.640Z,75.91
2018-12-16T08:58:13.238Z,75.78
2018-12-16T09:01:17.688Z,76.32
2018-12-16T09:04:21.501Z,75.62
2018-12-16T09:07:25.052Z,75.92
2018-12-16T09:10:34.135Z,75.55
2018-12-16T09:13:34.209Z,75.04
2018-12-16T09:16:37.702Z,77.00
2018-12-16T09:19:41.351Z,78.74
2018-12-16T09:22:45.001Z,78.62
2018-12-16T09:25:48.659Z,78.45
2018-12-16T09:28:52.202Z,81.02
2018-12-16T09:31:55.688Z,80.44
2018-12-16T09:34:59.155Z,80.54
2018-12-16T09:38:02.661Z,80.75
2018-12-16T09:41:06.157Z,82.76
2018-12-16T09:44:09.599Z,83.10
2018-12-16T09:47:13.126Z,84.78
2018-12-16T09:50:16.693Z,86.05
2018-12-16T09:53:20.335Z,87.51
2018-12-16T09:56:23.979Z,85.76
2018-12-16T09:59:27.877Z,85.27
2018-12-16T10:02:31.402Z,84.99
2018-12-16T10:05:34.893Z,85.64
2018-12-16T10:08:38.667Z,85.18
2018-12-16T10:11:42.246Z,86.75
2018-12-16T10:14:45.715Z,86.71
2018-12-16T10:17:49.223Z,88.69
2018-12-16T10:20:52.808Z,87.74
2018-12-16T10:23:56.406Z,88.71
2018-12-16T10:27:00.151Z,89.29
2018-12-16T10:30:04.262Z,89.00
2018-12-16T10:33:07.853Z,89.55
2018-12-16T10:36:11.365Z,91.34
2018-12-16T10:39:14.988Z,90.38
2018-12-16T10:42:18.590Z,92.46
2018-12-16T10:45:22.218Z,92.47
2018-12-16T10:48:25.871Z,93.98
2018-12-16T10:51:29.388Z,94.27
2018-12-16T10:54:33.050Z,94.97
2018-12-16T10:57:36.570Z,95.44
2018-12-16T11:00:45.455Z,96.32
2018-12-16T11:03:48.942Z,97.06
2018-12-16T11:06:52.537Z,97.13
2018-12-16T11:10:02.597Z,96.48
2018-12-16T11:13:06.592Z,96.24
2018-12-16T11:16:10.180Z,96.76
2018-12-16T11:19:13.795Z,95.77
2018-12-16T11:22:18.019Z,96.09
2018-12-16T11:25:21.746Z,95.30
2018-12-16T11:28:25.373Z,95.52
2018-12-16T11:31:28.848Z,95.09
2018-12-16T11:34:32.556Z,95.54
2018-12-16T11:37:36.180Z,95.17
2018-12-16T11:40:39.790Z,96.11
2018-12-16T11:43:43.268Z,94.98
2018-12-16T11:46:46.830Z,95.44
2018-12-16T11:49:50.348Z,95.34
2018-12-16T11:52:54.157Z,96.21
2018-12-16T11:55:57.706Z,95.28
2018-12-16T11:59:01.282Z,95.73
2018-12-16T12:02:04.797Z,96.72
2018-12-16T12:05:08.471Z,96.18
2018-12-16T12:08:11.962Z,96.30
2018-12-16T12:11:15.523Z,95.54
2018-12-16T12:14:19.064Z,95.84
2018-12-16T12:17:22.568Z,95.27
2018-12-16T12:20:26.077Z,95.76
2018-12-16T12:23:29.674Z,95.84
2018-12-16T12:26:33.436Z,95.59
2018-12-16T12:29:37.117Z,95.46
2018-12-16T12:32:40.736Z,95.25
2018-12-16T12:35:44.382Z,95.15
2018-12-16T12:38:49.144Z,95.39
2018-12-16T12:41:52.783Z,94.98
2018-12-16T12:44:56.238Z,94.57
2018-12-16T12:47:59.788Z,94.54
2018-12-16T12:51:03.313Z,95.09
2018-12-16T12:54:06.949Z,94.96
2018-12-16T12:57:10.578Z,94.76
2018-12-16T13:00:15.442Z,95.28
2018-12-16T13:03:18.927Z,95.18
2018-12-16T13:06:22.457Z,95.81
2018-12-16T13:09:26.019Z,95.09
2018-12-16T13:12:29.586Z,94.67
2018-12-16T13:15:33.054Z,94.32
2018-12-16T13:18:36.598Z,94.12
2018-12-16T13:21:40.136Z,93.15
2018-12-16T13:24:54.722Z,93.49
2018-12-16T13:27:58.303Z,94.13
2018-12-16T13:31:01.782Z,94.02
2018-12-16T13:34:05.457Z,93.98
2018-12-16T13:37:09.169Z,94.32
2018-12-16T13:40:12.877Z,94.20
2018-12-16T13:43:16.354Z,94.70
2018-12-16T13:46:19.994Z,94.15
2018-12-16T13:49:23.477Z,93.31
2018-12-16T13:52:26.962Z,93.22
2018-12-16T13:55:30.430Z,93.26
2018-12-16T13:58:33.995Z,93.38
2018-12-16T14:01:37.617Z,92.44
2018-12-16T14:04:41.183Z,94.20
2018-12-16T14:07:44.719Z,94.41
2018-12-16T14:15:00.823Z,94.12
2018-12-16T14:18:04.343Z,94.68
2018-12-16T14:21:07.946Z,94.97
2018-12-16T14:24:11.441Z,94.13
2018-12-16T14:27:14.968Z,94.80
2018-12-16T14:30:18.512Z,95.16
2018-12-16T14:33:22.051Z,95.67
2018-12-16T14:36:25.773Z,96.27
2018-12-16T14:39:29.439Z,95.80
2018-12-16T14:42:32.863Z,95.77
2018-12-16T14:45:36.502Z,95.76
2018-12-16T14:48:39.983Z,95.57
2018-12-16T14:51:43.626Z,95.67
2018-12-16T14:54:47.243Z,95.83
2018-12-16T14:57:50.817Z,96.44
2018-12-16T15:00:54.600Z,97.15
2018-12-16T15:03:58.067Z,97.34
2018-12-16T15:07:01.660Z,97.92
2018-12-16T15:10:07.700Z,97.24
2018-12-16T15:13:11.277Z,96.86
2018-12-16T15:16:14.909Z,97.17
2018-12-16T15:19:18.623Z,97.60
2018-12-16T15:22:22.176Z,97.47
2018-12-16T15:25:25.762Z,97.90
2018-12-16T15:28:29.285Z,97.71
2018-12-16T15:31:32.962Z,98.07
2018-12-16T15:34:36.497Z,97.53
2018-12-16T15:37:40.119Z,97.78
2018-12-16T15:40:43.652Z,98.08
2018-12-16T15:43:47.241Z,98.16
2018-12-16T15:46:50.827Z,98.24
2018-12-16T15:49:54.318Z,98.47
2018-12-16T15:52:57.932Z,98.56
2018-12-16T15:56:09.118Z,98.60
2018-12-16T15:59:07.524Z,98.93
2018-12-16T16:02:11.131Z,98.50
2018-12-16T16:05:14.769Z,98.03
2018-12-16T16:08:18.583Z,98.15
2018-12-16T16:11:22.106Z,97.26
2018-12-16T16:14:25.625Z,97.34
2018-12-16T16:17:29.221Z,97.12
2018-12-16T16:20:32.855Z,97.34
2018-12-16T16:23:36.446Z,97.60
2018-12-16T16:26:39.970Z,97.84
2018-12-16T16:29:43.547Z,98.00
2018-12-16T16:32:47.155Z,98.50
2018-12-16T16:35:50.703Z,98.61
2018-12-16T16:38:54.189Z,98.08
2018-12-16T16:41:57.865Z,97.98
2018-12-16T16:45:01.456Z,97.89
2018-12-16T16:48:05.137Z,98.12
2018-12-16T16:51:08.725Z,97.85
2018-12-16T16:54:12.196Z,97.76
2018-12-16T16:57:15.870Z,97.42
2018-12-16T17:00:19.557Z,96.79
2018-12-16T17:03:23.109Z,96.35
2018-12-16T17:06:26.581Z,96.63
2018-12-16T17:09:30.148Z,97.00
2018-12-16T17:12:33.645Z,97.24
2018-12-16T17:15:37.215Z,97.13
2018-12-16T17:18:41.446Z,96.87
2018-12-16T17:21:45.350Z,97.02
2018-12-16T17:24:49.957Z,97.21
2018-12-16T17:27:53.476Z,97.55
2018-12-16T17:30:57.051Z,97.37
2018-12-16T17:34:00.647Z,97.12
2018-12-16T17:37:04.150Z,97.48
2018-12-16T17:40:07.786Z,97.72
2018-12-16T17:43:11.411Z,97.84
2018-12-16T17:46:14.866Z,98.18
2018-12-16T17:49:18.728Z,98.57
2018-12-16T17:52:22.460Z,98.48
2018-12-16T17:55:25.951Z,98.36
2018-12-16T17:58:29.856Z,98.40
2018-12-16T18:01:33.474Z,98.02
2018-12-16T18:04:37.226Z,97.23
2018-12-16T18:07:40.805Z,97.75
2018-12-16T18:10:44.407Z,98.19
2018-12-16T18:17:10.126Z,98.69
2018-12-16T18:20:13.711Z,98.67
2018-12-16T18:23:17.251Z,98.83
2018-12-16T18:26:20.736Z,98.94
2018-12-16T18:29:24.210Z,99.27
2018-12-16T18:32:27.830Z,99.34
2018-12-16T18:35:31.406Z,99.32
2018-12-16T18:38:34.985Z,99.18
2018-12-16T18:41:39.554Z,99.66
2018-12-16T18:44:43.311Z,99.69
2018-12-16T18:47:46.805Z,99.67
2018-12-16T18:50:50.547Z,99.60
2018-12-16T18:53:54.117Z,99.46
2018-12-16T18:56:57.623Z,99.08
2018-12-16T19:00:01.217Z,99.43
2018-12-16T19:03:04.809Z,99.59
2018-12-16T19:06:08.551Z,99.74
2018-12-16T19:09:12.149Z,100.37
2018-12-16T19:12:16.661Z,100.59
2018-12-16T19:15:20.523Z,100.51
2018-12-16T19:18:25.426Z,101.01
2018-12-16T19:21:29.269Z,101.10
2018-12-16T19:24:32.820Z,100.72
2018-12-16T19:27:36.465Z,100.59
2018-12-16T19:30:40.159Z,100.64
2018-12-16T19:33:43.859Z,100.27
2018-12-16T19:36:47.615Z,100.14
2018-12-16T19:39:51.798Z,100.40
2018-12-16T19:42:55.428Z,100.49
2018-12-16T19:45:58.936Z,100.84
2018-12-16T19:49:02.492Z,101.30
2018-12-16T19:52:06.020Z,101.56
2018-12-16T19:55:09.672Z,101.39
2018-12-16T19:58:13.356Z,101.85
2018-12-16T20:01:17.077Z,101.98
2018-12-16T20:04:20.694Z,102.39
2018-12-16T20:07:24.334Z,102.50
2018-12-16T20:10:28.243Z,103.15
2018-12-16T20:13:31.799Z,103.10
2018-12-16T20:16:35.323Z,103.07
2018-12-16T20:19:38.824Z,103.35
2018-12-16T20:22:43.208Z,103.49
2018-12-16T20:25:46.776Z,103.33
2018-12-16T20:28:50.339Z,103.12
2018-12-16T20:31:54.028Z,102.55
2018-12-16T20:34:57.678Z,102.68
2018-12-16T20:38:01.391Z,102.55
2018-12-16T20:41:05.056Z,102.55
2018-12-16T20:44:08.591Z,102.85
2018-12-16T20:47:12.229Z,103.17
2018-12-16T20:50:15.724Z,103.24
2018-12-16T20:53:19.279Z,103.63
2018-12-16T20:56:22.832Z,103.43
2018-12-16T20:59:26.340Z,103.52
2018-12-16T21:02:30.009Z,103.69
2018-12-16T21:05:33.583Z,104.20
2018-12-16T21:08:37.077Z,104.03
2018-12-16T21:11:45.814Z,103.78
2018-12-16T21:14:55.419Z,103.73
2018-12-16T21:18:04.178Z,103.80
2018-12-16T21:21:07.798Z,103.92
2018-12-16T21:24:18.060Z,103.58
2018-12-16T21:27:26.013Z,103.74
2018-12-16T21:30:28.445Z,103.96
2018-12-16T21:33:32.068Z,102.91
2018-12-16T21:36:35.624Z,103.36
2018-12-16T21:39:39.230Z,103.58
2018-12-16T21:42:42.790Z,103.77
2018-12-16T21:45:46.278Z,104.07
2018-12-16T21:48:51.182Z,104.38
2018-12-16T21:51:54.660Z,104.61
2018-12-16T21:54:58.210Z,104.58
2018-12-16T21:58:01.690Z,104.24
2018-12-16T22:01:05.354Z,104.55
2018-12-16T22:04:08.835Z,104.61
2018-12-16T22:07:12.343Z,104.71
2018-12-16T22:10:15.850Z,104.81
2018-12-16T22:13:19.478Z,104.81
2018-12-16T22:16:23.093Z,104.61
2018-12-16T22:19:26.710Z,104.28
2018-12-16T22:22:30.379Z,104.30
2018-12-16T22:25:34.080Z,104.63
2018-12-16T22:28:37.720Z,104.85
2018-12-16T22:31:41.266Z,104.92
2018-12-16T22:34:44.822Z,104.96
2018-12-16T22:37:48.930Z,105.19
2018-12-16T22:40:52.575Z,105.71
2018-12-16T22:43:56.331Z,106.12
2018-12-16T22:46:59.928Z,106.35
2018-12-16T22:50:04.084Z,106.50
2018-12-16T22:53:07.603Z,106.61
2018-12-16T22:56:11.104Z,106.65
2018-12-16T22:59:14.621Z,107.15
2018-12-16T23:02:18.240Z,107.48
2018-12-16T23:05:21.723Z,107.41
2018-12-16T23:08:25.294Z,107.70
2018-12-16T23:11:29.350Z,107.55
2018-12-16T23:14:32.944Z,107.82
2018-12-16T23:17:36.393Z,108.04
2018-12-16T23:20:39.893Z,108.13
2018-12-16T23:23:43.454Z,108.25
2018-12-16T23:26:46.938Z,108.22
2018-12-16T23:29:50.383Z,108.14
2018-12-16T23:32:53.885Z,108.27
2018-12-16T23:35:57.679Z,108.47
2018-12-16T23:39:01.251Z,108.59
2018-12-16T23:42:04.843Z,108.37
2018-12-16T23:45:09.387Z,108.51
2018-12-16T23:48:12.902Z,108.56
2018-12-16T23:51:18.258Z,108.53
2018-12-16T23:54:21.697Z,108.69
2018-12-16T23:57:25.251Z,108.59
